createdAt,value
2023-03-15T12:39:46.408Z,64.87
2023-03-15T12:43:15.863Z,65.34
2023-03-15T12:47:01.271Z,65.01
2023-03-15T12:50:54.188Z,65.08
2023-03-15T12:54:22.743Z,64.55
2023-03-15T12:57:55.430Z,63.99
2023-03-15T13:01:26.027Z,63.97
2023-03-15T13:04:58.855Z,63.71
2023-03-15T13:08:24.824Z,63.96
2023-03-15T13:11:58.753Z,63.94
2023-03-15T13:15:34.059Z,64.11
2023-03-15T13:19:10.664Z,63.65
2023-03-15T13:22:54.911Z,63.09
2023-03-15T13:26:35.858Z,62.91
2023-03-15T13:30:03.477Z,62.90
2023-03-15T13:33:31.691Z,62.93
2023-03-15T13:37:02.452Z,62.58
2023-03-15T13:40:28.927Z,62.16
2023-03-15T13:43:57.815Z,61.75
2023-03-15T13:47:24.630Z,61.60
2023-03-15T13:50:54.734Z,60.87
2023-03-15T13:54:26.071Z,61.05
2023-03-15T13:57:59.518Z,60.80
2023-03-15T14:01:28.523Z,60.95
2023-03-15T14:05:01.148Z,60.63
2023-03-15T14:08:32.156Z,60.89
2023-03-15T14:12:19.075Z,60.13
2023-03-15T14:15:48.142Z,60.45
2023-03-15T14:19:22.801Z,60.58
2023-03-15T14:22:52.172Z,60.18
2023-03-15T14:26:22.614Z,60.31
2023-03-15T14:29:54.586Z,60.40
2023-03-15T14:33:31.682Z,60.44
2023-03-15T14:37:00.053Z,60.22
2023-03-15T14:40:35.054Z,59.70
2023-03-15T14:44:03.254Z,59.88
2023-03-15T14:47:30.290Z,58.93
2023-03-15T14:50:57.958Z,58.93
2023-03-15T14:54:24.311Z,58.46
2023-03-15T14:57:50.514Z,58.42
2023-03-15T15:01:19.465Z,57.85
2023-03-15T15:04:48.593Z,57.57
2023-03-15T15:08:18.068Z,57.30
2023-03-15T15:11:44.390Z,57.02
2023-03-15T15:15:18.711Z,56.88
2023-03-15T15:18:45.211Z,56.87
2023-03-15T15:22:12.961Z,56.56
2023-03-15T15:25:39.355Z,56.48
2023-03-15T15:29:06.040Z,56.28
2023-03-15T15:32:34.181Z,56.41
2023-03-15T15:36:01.576Z,55.98
2023-03-15T15:39:29.898Z,55.72
2023-03-15T15:42:56.534Z,55.69
2023-03-15T15:46:24.203Z,55.53
2023-03-15T15:49:51.215Z,55.69
2023-03-15T15:53:19.946Z,55.70
2023-03-15T15:56:50.509Z,55.64
2023-03-15T16:00:19.785Z,55.67
2023-03-15T16:03:47.607Z,55.38
2023-03-15T16:07:15.462Z,55.58
2023-03-15T16:10:41.707Z,55.44
2023-03-15T16:14:08.122Z,55.36
2023-03-15T16:17:35.992Z,55.49
2023-03-15T16:21:03.553Z,55.34
2023-03-15T16:24:34.215Z,55.55
2023-03-15T16:28:03.966Z,55.61
2023-03-15T16:31:33.974Z,55.89
2023-03-15T16:35:02.238Z,55.81
2023-03-15T16:38:32.613Z,55.89
2023-03-15T16:41:59.407Z,56.01
2023-03-15T16:45:26.252Z,56.05
2023-03-15T16:48:52.935Z,56.19
2023-03-15T16:52:20.270Z,56.19
2023-03-15T16:55:46.553Z,56.40
2023-03-15T16:59:16.776Z,56.52
2023-03-15T17:02:43.260Z,56.77
2023-03-15T17:06:17.690Z,56.77
2023-03-15T17:09:46.813Z,56.94
2023-03-15T17:13:21.490Z,57.35
2023-03-15T17:16:48.240Z,57.15
2023-03-15T17:20:21.873Z,57.19
2023-03-15T17:23:46.953Z,57.34
2023-03-15T17:27:22.569Z,57.26
2023-03-15T17:30:59.607Z,57.19
2023-03-15T17:34:35.457Z,57.42
2023-03-15T17:38:03.484Z,57.45
2023-03-15T17:41:33.404Z,57.53
2023-03-15T17:45:07.115Z,57.52
2023-03-15T17:48:33.399Z,57.54
2023-03-15T17:52:00.720Z,57.80
2023-03-15T17:55:35.236Z,57.72
2023-03-15T17:59:05.058Z,57.90
2023-03-15T18:02:33.700Z,57.80
2023-03-15T18:06:05.681Z,57.84
2023-03-15T18:09:38.768Z,58.10
2023-03-15T18:13:15.120Z,58.18
2023-03-15T18:16:50.257Z,58.11
2023-03-15T18:20:22.490Z,58.23
2023-03-15T18:23:51.548Z,58.39
2023-03-15T18:27:24.438Z,58.33
2023-03-15T18:30:55.784Z,58.59
2023-03-15T18:34:26.654Z,58.59
2023-03-15T18:37:59.011Z,58.88
2023-03-15T18:41:34.472Z,58.86
2023-03-15T18:45:02.668Z,59.00
2023-03-15T18:48:39.968Z,59.11
2023-03-15T18:52:09.626Z,59.28
2023-03-15T18:55:36.753Z,59.35
2023-03-15T18:59:06.718Z,59.54
2023-03-15T19:02:36.605Z,59.71
2023-03-15T19:06:09.004Z,59.78
2023-03-15T19:09:35.617Z,59.84
2023-03-15T19:13:04.556Z,60.02
2023-03-15T19:16:32.471Z,60.08
2023-03-15T19:19:59.893Z,60.18
2023-03-15T19:23:28.988Z,60.30
2023-03-15T19:26:57.358Z,60.39
2023-03-15T19:30:27.928Z,60.38
2023-03-15T19:33:57.015Z,60.47
2023-03-15T19:37:27.311Z,60.51
2023-03-15T19:40:59.001Z,60.59
2023-03-15T19:44:34.747Z,60.68
2023-03-15T19:48:01.959Z,60.82
2023-03-15T19:51:29.565Z,61.12
2023-03-15T19:54:57.366Z,61.22
2023-03-15T19:58:24.450Z,61.36
2023-03-15T20:01:51.045Z,61.45
2023-03-15T20:05:20.780Z,61.53
2023-03-15T20:08:47.457Z,61.68
2023-03-15T20:12:15.582Z,61.65
2023-03-15T20:15:43.213Z,61.64
2023-03-15T20:19:10.098Z,61.79
2023-03-15T20:22:40.632Z,61.80
2023-03-15T20:26:11.024Z,61.91
2023-03-15T20:29:37.844Z,61.99
2023-03-15T20:33:04.738Z,62.00
2023-03-15T20:36:33.561Z,62.03
2023-03-15T20:40:00.859Z,62.39
2023-03-15T20:43:28.114Z,62.35
2023-03-15T20:46:57.040Z,62.54
2023-03-15T20:50:24.242Z,62.60
2023-03-15T20:53:51.230Z,62.74
2023-03-15T20:57:18.858Z,62.81
2023-03-15T21:00:46.168Z,62.97
2023-03-15T21:04:13.903Z,63.05
2023-03-15T21:07:41.660Z,63.10
2023-03-15T21:11:09.346Z,63.05
2023-03-15T21:14:37.031Z,63.17
2023-03-15T21:18:03.795Z,63.06
2023-03-15T21:21:31.290Z,63.09
2023-03-15T21:24:58.489Z,63.14
2023-03-15T21:28:26.665Z,63.00
2023-03-15T21:31:55.361Z,63.09
2023-03-15T21:35:23.574Z,63.17
2023-03-15T21:38:49.862Z,63.31
2023-03-15T21:42:16.735Z,63.25
2023-03-15T21:45:44.487Z,63.26
2023-03-15T21:49:19.633Z,63.30
2023-03-15T21:52:46.368Z,63.50
2023-03-15T21:56:14.215Z,63.66
2023-03-15T21:59:41.283Z,63.67
2023-03-15T22:03:08.256Z,63.68
2023-03-15T22:06:34.918Z,63.68
2023-03-15T22:10:02.374Z,63.73
2023-03-15T22:13:30.281Z,63.90
2023-03-15T22:16:57.150Z,63.77
2023-03-15T22:20:29.297Z,63.99
2023-03-15T22:23:57.071Z,63.99
2023-03-15T22:27:24.101Z,64.28
2023-03-15T22:30:52.404Z,64.15
2023-03-15T22:34:19.303Z,64.18
2023-03-15T22:37:46.923Z,64.36
2023-03-15T22:41:14.304Z,64.26
2023-03-15T22:44:40.829Z,64.23
2023-03-15T22:48:08.294Z,64.21
2023-03-15T22:51:35.173Z,64.14
2023-03-15T22:55:01.789Z,64.25
2023-03-15T22:58:29.078Z,64.40
2023-03-15T23:01:55.535Z,64.35
2023-03-15T23:05:22.764Z,64.50
2023-03-15T23:08:51.318Z,64.36
2023-03-15T23:12:21.906Z,64.31
2023-03-15T23:15:52.194Z,64.36
2023-03-15T23:19:19.967Z,64.49
2023-03-15T23:22:46.719Z,64.53
2023-03-15T23:26:16.545Z,64.74
2023-03-15T23:29:53.726Z,64.76
2023-03-15T23:33:21.372Z,64.83
2023-03-15T23:36:47.758Z,64.82
2023-03-15T23:40:15.867Z,65.01
2023-03-15T23:43:45.444Z,65.09
2023-03-15T23:47:12.705Z,65.18
2023-03-15T23:50:44.512Z,65.10
2023-03-15T23:54:11.687Z,65.29
2023-03-15T23:57:38.981Z,65.53
